Tampa, FL (33647)

4:25 AM EDT en Octubre 02, 2014 (GMT -0400)
West Meadows - New Tampa | Change Station
CLOSE
Current Station
Estación meteorológica personal
Location: Tampa, FL
Altura: 52 ft
Estaciones meteorológicas cercanas
Aviso en curso: Flood Warning

Alt 52 ft 28.15 °N, 82.36 °W | Updated 2 minutes ago

Despejado
Despejado
72.3 ° F
Sensación térmica 72.3 ° F
N
0.0
Viento Variable Viento desde NE

Hoy
Alta -- | Baja -- ° F
--% Posibilidad de precipitaciones
Ayer
Alta -- | Baja -- ° F
Precip. -- pul
7:22 AM 7:14 PM
Cuarto creciente, 56% visible
Presión 29.97 pul
Visibilidad 10.0 Millas
Nubes Despejado
Punto de rocío 72 ° F
Humedad 99%
Precipitaciones 0.00 pul
Espesor de la nieve No disponible.
UV 0 de una escala de 12
Polen 5.40 de una escala de 12
Calidad del aire No disponible.
Flu Activity No disponible.
METAR KVDF 020815Z AUTO 00000KT 10SM CLR 24/22 A2997 RMK AO2

More Conditions Fewer Conditions

Presión 29.97 pul
Visibilidad 10.0 Millas
Nubes Despejado
Punto de rocío 72 ° F
Humedad 99%
Precipitaciones 0.00 pul
Espesor de la nieve No disponible.
UV 0 de una escala de 12
Polen 5.40 de una escala de 12
Calidad del aire No disponible.
Flu Activity No disponible.
METAR KVDF 020815Z AUTO 00000KT 10SM CLR 24/22 A2997 RMK AO2

More Conditions Fewer Conditions

10-Day Weather Forecast

Almanac

Astronomía

Oct. 02, 2014 Salida Puesta
Hora real 7:22 AM EDT 7:14 PM EDT
Crepúsculo civil 6:59 AM EDT 7:37 PM EDT
Crepúsculo náutico 6:32 AM EDT 8:04 PM EDT
Crepúsculo astronómico 6:04 AM EDT 8:32 PM EDT
Luna 2:53 PM EDT 1:06 AM EDT
Horas de luz 12h 38m
Horas de luz
11h 51m
Tomorrow will be 1m 39s shorter.
Cuarto creciente, 56% of the Moon is Illuminated
Hoy
Cuarto creciente
Oct 8
Luna llena
Oct 15
Cuarto menguante
Oct 23
Nueva
Oct 30
Cuarto creciente

Extremos de hoy

Máximos del estado Bajos del estado

Community

WunderPhotos

Upload Photos

1,758,196 ¡fotos cargadas!

WunderBlogs® & News

By Dr. Jeff Masters
Director of Meteorology, Weather Underground
By Kari Strenfel
Meteorologist, Weather Underground
By Christopher C. Burt
Weather Historian, Weather Underground
October 2, 2014
October 2, 2014
October 2, 2014

Nearby

Grosos de nieve

Estación Profundido Altura
No tenemos constancia de nieve nueva.

Actividad de terremotos

Ciudad Distance Mag. Tiempo y dato
No hay informes recientes de la actividad sísmica.
Magnitud mínima muestra es 2,5.

Temperaturas de aguas costeras

Lugar Temperatura
St Petersburg, FL 86.0 ° F
Old Port Tampa, FL 84.0 ° F
McKay Bay Entrance, FL 84.0 ° F

Estaciones meteorológicas cercanas